createdAt,value
2017-06-20T00:00:00.586Z,26.31
2017-06-20T00:00:41.047Z,26.27
2017-06-20T00:01:21.507Z,26.31
2017-06-20T00:03:09.337Z,26.29
2017-06-20T00:03:49.793Z,26.29
2017-06-20T00:04:30.251Z,26.29
2017-06-20T00:05:10.712Z,26.31
2017-06-20T00:05:51.173Z,26.29
2017-06-20T00:06:31.627Z,26.26
2017-06-20T00:07:12.093Z,26.27
2017-06-20T00:07:52.552Z,26.26
2017-06-20T00:08:33.010Z,26.26
2017-06-20T00:09:13.473Z,26.22
2017-06-20T00:09:53.932Z,26.24
2017-06-20T00:10:34.392Z,26.24
2017-06-20T00:11:14.847Z,26.15
2017-06-20T00:11:55.308Z,26.11
2017-06-20T00:12:35.758Z,26.22
2017-06-20T00:13:16.218Z,26.15
2017-06-20T00:13:56.669Z,26.1
2017-06-20T00:14:37.128Z,26.18
2017-06-20T00:15:17.588Z,26.13
2017-06-20T00:15:58.045Z,26.18
2017-06-20T00:16:38.500Z,26.08
2017-06-20T00:17:18.958Z,26.16
2017-06-20T00:17:59.416Z,26.22
2017-06-20T00:18:39.875Z,26.18
2017-06-20T00:19:20.332Z,26.16
2017-06-20T00:20:00.792Z,26.07
2017-06-20T00:20:41.250Z,26.11
2017-06-20T00:21:21.711Z,26.11
2017-06-20T00:22:02.163Z,26.13
2017-06-20T00:22:42.619Z,26.11
2017-06-20T00:23:23.095Z,26.11
2017-06-20T00:24:03.541Z,26.08
2017-06-20T00:24:44.017Z,26.15
2017-06-20T00:25:24.483Z,26.07
2017-06-20T00:26:04.940Z,26.07
2017-06-20T00:26:45.402Z,26.07
2017-06-20T00:27:25.859Z,26.16
2017-06-20T00:28:06.322Z,26.03
2017-06-20T00:28:46.783Z,26.04
2017-06-20T00:29:27.242Z,25.99
2017-06-20T00:30:07.699Z,26.03
2017-06-20T00:30:48.160Z,26.03
2017-06-20T00:31:28.619Z,26.04
2017-06-20T00:32:09.080Z,26.08
2017-06-20T00:32:49.540Z,26.1
2017-06-20T00:33:29.999Z,26.01
2017-06-20T00:34:10.461Z,26.1
2017-06-20T00:34:50.921Z,25.98
2017-06-20T00:35:31.378Z,26.06
2017-06-20T00:36:11.837Z,26.1
2017-06-20T00:36:52.297Z,26.04
2017-06-20T00:37:32.755Z,26.03
2017-06-20T00:38:13.214Z,26.06
2017-06-20T00:38:53.663Z,25.98
2017-06-20T00:39:34.127Z,26.08
2017-06-20T00:40:14.581Z,26.07
2017-06-20T00:40:55.039Z,26.13
2017-06-20T00:41:35.507Z,26.03
2017-06-20T00:42:15.971Z,26.06
2017-06-20T00:42:56.424Z,26.08
2017-06-20T00:43:36.881Z,25.99
2017-06-20T00:44:17.326Z,26.04
2017-06-20T00:44:57.793Z,25.96
2017-06-20T00:45:38.250Z,26.03
2017-06-20T00:46:18.719Z,26.01
2017-06-20T00:46:59.159Z,26.01
2017-06-20T00:47:39.617Z,26.01
2017-06-20T00:48:20.073Z,25.96
2017-06-20T00:49:00.533Z,26.03
2017-06-20T00:49:40.992Z,25.98
2017-06-20T00:50:21.452Z,25.98
2017-06-20T00:51:01.911Z,25.96
2017-06-20T00:51:42.377Z,25.96
2017-06-20T00:52:22.831Z,25.95
2017-06-20T00:53:03.290Z,25.96
2017-06-20T00:53:43.751Z,25.96
2017-06-20T00:54:24.211Z,25.99
2017-06-20T00:55:04.678Z,25.98
2017-06-20T00:55:45.138Z,25.99
2017-06-20T00:56:25.593Z,25.96
2017-06-20T00:57:06.052Z,25.99
2017-06-20T00:57:46.513Z,25.99
2017-06-20T00:58:26.965Z,25.96
2017-06-20T00:59:07.458Z,26.03
2017-06-20T00:59:47.913Z,25.86
2017-06-20T01:00:28.380Z,25.92
2017-06-20T01:01:08.833Z,25.93
2017-06-20T01:01:49.294Z,25.98
2017-06-20T01:02:29.751Z,25.92
2017-06-20T01:03:10.211Z,25.98
2017-06-20T01:03:50.663Z,25.99
2017-06-20T01:04:31.123Z,25.96
2017-06-20T01:05:11.580Z,25.93
2017-06-20T01:05:52.040Z,25.99
2017-06-20T01:06:32.502Z,25.96
2017-06-20T01:07:12.961Z,25.99
2017-06-20T01:07:53.420Z,25.98
2017-06-20T01:08:33.869Z,25.99
2017-06-20T01:09:14.324Z,25.95
2017-06-20T01:09:54.794Z,25.93
2017-06-20T01:10:35.251Z,25.95
2017-06-20T01:11:15.709Z,26.03
2017-06-20T01:11:56.165Z,25.96
2017-06-20T01:12:36.651Z,26.04
2017-06-20T01:13:17.085Z,25.92
2017-06-20T01:13:57.545Z,26.06
2017-06-20T01:14:38.005Z,25.98
2017-06-20T01:15:18.462Z,25.98
2017-06-20T01:15:58.923Z,26.01
2017-06-20T01:16:39.381Z,26.01
2017-06-20T01:17:19.842Z,25.98
2017-06-20T01:18:00.301Z,25.98
2017-06-20T01:18:40.759Z,25.98
2017-06-20T01:19:21.217Z,25.99
2017-06-20T01:20:01.677Z,26.01
2017-06-20T01:20:42.138Z,26.01
2017-06-20T01:21:22.599Z,25.99
2017-06-20T01:22:03.058Z,26.01
2017-06-20T01:22:43.517Z,25.92
2017-06-20T01:23:23.974Z,25.99
2017-06-20T01:24:04.430Z,25.98
2017-06-20T01:24:44.889Z,25.98
2017-06-20T01:25:25.350Z,25.99
2017-06-20T01:26:05.803Z,25.93
2017-06-20T01:26:46.260Z,25.91
2017-06-20T01:27:26.722Z,25.96
2017-06-20T01:28:07.182Z,25.96
2017-06-20T01:28:47.641Z,25.95
2017-06-20T01:29:28.100Z,25.91
2017-06-20T01:30:08.559Z,25.95
2017-06-20T01:30:49.024Z,25.91
2017-06-20T01:31:29.481Z,25.85
2017-06-20T01:32:09.943Z,25.91
2017-06-20T01:32:50.401Z,25.86
2017-06-20T01:33:30.860Z,25.91
2017-06-20T01:34:11.325Z,25.81
2017-06-20T01:34:51.783Z,25.83
2017-06-20T01:35:32.236Z,25.88
2017-06-20T01:36:12.694Z,25.85
2017-06-20T01:36:53.153Z,25.78
2017-06-20T01:37:33.609Z,25.81
2017-06-20T01:38:14.072Z,25.83
2017-06-20T01:38:54.531Z,25.77
2017-06-20T01:39:34.987Z,25.8
2017-06-20T01:40:15.451Z,25.81
2017-06-20T01:40:55.907Z,25.77
2017-06-20T01:41:36.382Z,25.71
2017-06-20T01:42:16.840Z,25.74
2017-06-20T01:42:57.296Z,25.74
2017-06-20T01:43:37.759Z,25.77
2017-06-20T01:44:18.218Z,25.77
2017-06-20T01:44:58.667Z,25.77
2017-06-20T01:45:39.126Z,25.73
2017-06-20T01:46:19.590Z,25.7
2017-06-20T01:47:00.054Z,25.8
2017-06-20T01:47:40.513Z,25.71
2017-06-20T01:48:20.971Z,25.78
2017-06-20T01:49:01.430Z,25.76
2017-06-20T01:49:41.890Z,25.73
2017-06-20T01:50:22.347Z,25.74
2017-06-20T01:51:02.802Z,25.76
2017-06-20T01:51:43.258Z,25.77
2017-06-20T01:52:23.719Z,25.76
2017-06-20T01:53:04.179Z,25.71
2017-06-20T01:53:44.635Z,25.73
2017-06-20T01:54:25.105Z,25.68
2017-06-20T01:55:05.577Z,25.71
2017-06-20T01:55:46.034Z,25.71
2017-06-20T01:56:26.493Z,25.66
2017-06-20T01:57:06.947Z,25.73
2017-06-20T01:57:47.411Z,25.66
2017-06-20T01:58:27.866Z,25.66
2017-06-20T01:59:08.327Z,25.66
2017-06-20T01:59:48.787Z,25.63
2017-06-20T02:00:29.245Z,25.7
2017-06-20T02:01:09.705Z,25.66
2017-06-20T02:01:50.162Z,25.62
2017-06-20T02:02:30.624Z,25.67
2017-06-20T02:03:11.081Z,25.63
2017-06-20T02:03:51.544Z,25.62
2017-06-20T02:04:32.000Z,25.62
2017-06-20T02:05:12.460Z,25.66
2017-06-20T02:05:52.923Z,25.62
2017-06-20T02:06:33.386Z,25.61
2017-06-20T02:07:13.836Z,25.61
2017-06-20T02:07:54.311Z,25.62
2017-06-20T02:08:34.768Z,25.61
2017-06-20T02:09:15.227Z,25.63
2017-06-20T02:09:55.688Z,25.66
2017-06-20T02:10:36.148Z,25.62
2017-06-20T02:11:16.607Z,25.63
2017-06-20T02:11:57.077Z,25.61
2017-06-20T02:12:37.532Z,25.59
2017-06-20T02:13:17.990Z,25.59
2017-06-20T02:13:58.451Z,25.61
2017-06-20T02:14:38.896Z,25.62
2017-06-20T02:15:19.351Z,25.59
2017-06-20T02:15:59.810Z,25.51
2017-06-20T02:16:40.269Z,25.61
2017-06-20T02:17:20.726Z,25.58
2017-06-20T02:18:01.186Z,25.66
2017-06-20T02:18:41.646Z,25.55
2017-06-20T02:19:22.104Z,25.56
2017-06-20T02:20:02.571Z,25.59
2017-06-20T02:20:43.020Z,25.62
2017-06-20T02:21:23.481Z,25.59
2017-06-20T02:22:03.941Z,25.55
2017-06-20T02:22:44.398Z,25.54
2017-06-20T02:23:24.856Z,25.56
2017-06-20T02:24:05.313Z,25.55
2017-06-20T02:24:45.772Z,25.54
2017-06-20T02:25:26.233Z,25.59
2017-06-20T02:26:06.688Z,25.61
2017-06-20T02:26:47.149Z,25.55
2017-06-20T02:27:27.607Z,25.59
2017-06-20T02:28:08.065Z,25.62
2017-06-20T02:28:48.521Z,25.59
2017-06-20T02:29:28.987Z,25.61
2017-06-20T02:30:09.446Z,25.51
2017-06-20T02:30:49.899Z,25.59
2017-06-20T02:31:30.381Z,25.58
2017-06-20T02:32:10.815Z,25.58
2017-06-20T02:32:51.273Z,25.54
2017-06-20T02:33:31.731Z,25.46
2017-06-20T02:34:12.194Z,25.49
2017-06-20T02:34:52.650Z,25.55
2017-06-20T02:35:33.110Z,25.54
2017-06-20T02:36:13.566Z,25.58
2017-06-20T02:36:54.026Z,25.4
2017-06-20T02:37:34.481Z,25.55
2017-06-20T02:38:14.944Z,25.54
2017-06-20T02:38:55.398Z,25.56
2017-06-20T02:39:35.856Z,25.49
2017-06-20T02:40:16.317Z,25.55
2017-06-20T02:40:56.780Z,25.58
2017-06-20T02:41:37.237Z,25.54
2017-06-20T02:42:17.693Z,25.58
2017-06-20T02:42:58.149Z,25.58
2017-06-20T02:43:38.610Z,25.58
2017-06-20T02:44:19.081Z,25.44
2017-06-20T02:44:59.541Z,25.55
2017-06-20T02:45:39.997Z,25.51
2017-06-20T02:46:20.456Z,25.48
2017-06-20T02:47:00.914Z,25.48
2017-06-20T02:47:41.372Z,25.48
2017-06-20T02:48:21.829Z,25.52
2017-06-20T02:49:02.287Z,25.54
2017-06-20T02:49:42.748Z,25.48
2017-06-20T02:50:23.209Z,25.49
2017-06-20T02:51:03.668Z,25.41
2017-06-20T02:51:44.129Z,25.44
2017-06-20T02:52:24.587Z,25.39
2017-06-20T02:53:05.049Z,25.48
2017-06-20T02:53:45.508Z,25.54
2017-06-20T02:54:25.969Z,25.51
2017-06-20T02:55:06.430Z,25.49
2017-06-20T02:55:46.891Z,25.49
2017-06-20T02:56:27.349Z,25.49
2017-06-20T02:57:07.812Z,25.48
2017-06-20T02:57:48.270Z,25.46
2017-06-20T02:58:28.735Z,25.51
2017-06-20T02:59:09.193Z,25.41
2017-06-20T02:59:49.650Z,25.36
2017-06-20T03:00:30.111Z,25.4
2017-06-20T03:01:10.577Z,25.4
2017-06-20T03:01:51.044Z,25.36
2017-06-20T03:02:31.500Z,25.36
2017-06-20T03:03:11.959Z,25.33
2017-06-20T03:03:52.419Z,25.36
2017-06-20T03:04:32.877Z,25.34
2017-06-20T03:05:13.332Z,25.46
2017-06-20T03:05:53.788Z,25.36
2017-06-20T03:06:34.247Z,25.34
2017-06-20T03:07:14.707Z,25.43
2017-06-20T03:07:55.168Z,25.34
2017-06-20T03:08:35.627Z,25.37
2017-06-20T03:09:16.089Z,25.41
2017-06-20T03:09:56.562Z,25.37
2017-06-20T03:10:37.013Z,25.36
2017-06-20T03:11:17.478Z,25.34
2017-06-20T03:11:57.934Z,25.43
2017-06-20T03:12:38.397Z,25.39
2017-06-20T03:13:18.883Z,25.39
2017-06-20T03:13:59.344Z,25.36
2017-06-20T03:14:39.942Z,25.39
2017-06-20T03:15:20.403Z,25.41
2017-06-20T03:16:00.904Z,25.39
2017-06-20T03:16:41.370Z,25.37
2017-06-20T03:17:21.832Z,25.37
2017-06-20T03:18:02.288Z,25.37
2017-06-20T03:18:42.746Z,25.36
2017-06-20T03:19:23.204Z,25.34
2017-06-20T03:20:03.670Z,25.37
2017-06-20T03:20:44.134Z,25.36
2017-06-20T03:21:24.596Z,25.37
2017-06-20T03:22:05.052Z,25.34
2017-06-20T03:22:45.512Z,25.3
2017-06-20T03:23:25.962Z,25.31
2017-06-20T03:24:06.420Z,25.36
2017-06-20T03:24:46.882Z,25.29
2017-06-20T03:25:27.338Z,25.37
2017-06-20T03:26:07.794Z,25.37
2017-06-20T03:26:48.252Z,25.37
2017-06-20T03:27:28.713Z,25.37
2017-06-20T03:28:09.172Z,25.37
2017-06-20T03:28:49.630Z,25.39
2017-06-20T03:29:30.089Z,25.39
2017-06-20T03:30:10.570Z,25.39
2017-06-20T03:30:51.033Z,25.43
2017-06-20T03:31:31.482Z,25.34
2017-06-20T03:32:11.944Z,25.4
2017-06-20T03:32:52.407Z,25.39
2017-06-20T03:33:32.862Z,25.36
2017-06-20T03:34:13.317Z,25.36
2017-06-20T03:34:53.776Z,25.39
2017-06-20T03:35:34.248Z,25.36
2017-06-20T03:36:14.711Z,25.36
2017-06-20T03:36:55.173Z,25.34
2017-06-20T03:37:35.632Z,25.33
2017-06-20T03:38:16.135Z,25.34
2017-06-20T03:38:56.597Z,25.41
2017-06-20T03:39:37.047Z,25.39
2017-06-20T03:40:17.508Z,25.41
2017-06-20T03:40:57.965Z,25.37
2017-06-20T03:41:38.423Z,25.4
2017-06-20T03:42:18.887Z,25.36
2017-06-20T03:42:59.348Z,25.34
2017-06-20T03:43:39.808Z,25.41
2017-06-20T03:44:20.266Z,25.34
2017-06-20T03:45:00.732Z,25.36
2017-06-20T03:45:41.192Z,25.39
2017-06-20T03:46:21.645Z,25.31
2017-06-20T03:47:02.103Z,25.46
2017-06-20T03:47:42.577Z,25.37
2017-06-20T03:48:23.034Z,25.34
2017-06-20T03:49:03.496Z,25.37
2017-06-20T03:49:43.962Z,25.4
2017-06-20T03:50:24.418Z,25.37
2017-06-20T03:51:04.882Z,25.36
2017-06-20T03:51:45.333Z,25.31
2017-06-20T03:52:25.790Z,25.26
2017-06-20T03:53:06.261Z,25.29
2017-06-20T03:53:46.713Z,25.24
2017-06-20T03:54:27.174Z,25.19
2017-06-20T03:55:07.635Z,25.25
2017-06-20T03:55:48.095Z,25.21
2017-06-20T03:56:28.555Z,25.22
2017-06-20T03:57:09.008Z,25.25
2017-06-20T03:57:49.467Z,25.29
2017-06-20T03:58:29.922Z,25.29
2017-06-20T03:59:10.384Z,25.21
2017-06-20T03:59:50.845Z,25.3
2017-06-20T04:00:31.299Z,25.3
2017-06-20T04:01:11.759Z,25.25
2017-06-20T04:01:52.221Z,25.25
2017-06-20T04:02:32.678Z,25.25
2017-06-20T04:03:13.136Z,25.26
2017-06-20T04:03:53.595Z,25.21
2017-06-20T04:04:34.058Z,25.29
2017-06-20T04:05:14.509Z,25.3
2017-06-20T04:05:54.970Z,25.21
2017-06-20T04:06:35.426Z,25.26
2017-06-20T04:07:15.879Z,25.25
2017-06-20T04:07:56.335Z,25.24
2017-06-20T04:08:36.787Z,25.26
2017-06-20T04:09:17.251Z,25.36
2017-06-20T04:09:57.703Z,25.29
2017-06-20T04:10:38.164Z,25.31
2017-06-20T04:11:18.623Z,25.3
2017-06-20T04:11:59.085Z,25.34
2017-06-20T04:12:39.546Z,25.3
2017-06-20T04:13:20.006Z,25.31
2017-06-20T04:14:00.462Z,25.33
2017-06-20T04:14:40.921Z,25.33
2017-06-20T04:15:21.379Z,25.33
2017-06-20T04:16:01.837Z,25.4
2017-06-20T04:16:42.290Z,25.37
2017-06-20T04:17:22.750Z,25.4
2017-06-20T04:18:03.215Z,25.36
2017-06-20T04:18:43.677Z,25.36
2017-06-20T04:19:24.137Z,25.31
2017-06-20T04:20:04.593Z,25.37
2017-06-20T04:20:45.053Z,25.33
2017-06-20T04:21:25.513Z,25.36
2017-06-20T04:22:05.973Z,25.39
2017-06-20T04:22:46.433Z,25.41
2017-06-20T04:23:26.895Z,25.4
2017-06-20T04:24:07.355Z,25.37
2017-06-20T04:24:47.818Z,25.46
2017-06-20T04:25:28.276Z,25.43
2017-06-20T04:26:08.734Z,25.46
2017-06-20T04:26:49.188Z,25.43
2017-06-20T04:27:29.653Z,25.48
2017-06-20T04:28:10.120Z,25.49
2017-06-20T04:28:50.572Z,25.49
2017-06-20T04:29:31.040Z,25.51
2017-06-20T04:30:11.494Z,25.46
2017-06-20T04:30:51.953Z,25.48
2017-06-20T04:31:32.400Z,25.52
2017-06-20T04:32:12.864Z,25.43
2017-06-20T04:32:53.320Z,25.51
2017-06-20T04:33:33.795Z,25.52
2017-06-20T04:34:14.254Z,25.58
2017-06-20T04:34:54.716Z,25.44
2017-06-20T04:35:35.170Z,25.49
2017-06-20T04:36:15.631Z,25.52
2017-06-20T04:36:56.089Z,25.55
2017-06-20T04:37:36.554Z,25.43
2017-06-20T04:38:17.018Z,25.56
2017-06-20T04:38:57.473Z,25.54
2017-06-20T04:39:37.931Z,25.55
2017-06-20T04:40:18.392Z,25.58
2017-06-20T04:40:58.853Z,25.58
2017-06-20T04:41:39.320Z,25.59
2017-06-20T04:42:19.781Z,25.54
2017-06-20T04:43:00.238Z,25.55
2017-06-20T04:43:40.700Z,25.61
2017-06-20T04:44:21.159Z,25.61
2017-06-20T04:45:01.617Z,25.67
2017-06-20T04:45:42.083Z,25.63
2017-06-20T04:46:22.538Z,25.56
2017-06-20T04:47:02.996Z,25.56
2017-06-20T04:47:43.451Z,25.55
2017-06-20T04:48:23.909Z,25.62
2017-06-20T04:49:04.369Z,25.61
2017-06-20T04:49:44.827Z,25.56
2017-06-20T04:50:25.286Z,25.55
2017-06-20T04:51:05.743Z,25.56
2017-06-20T04:51:46.204Z,25.54
2017-06-20T04:52:26.665Z,25.56
2017-06-20T04:53:07.122Z,25.54
2017-06-20T04:53:47.582Z,25.58
2017-06-20T04:54:28.040Z,25.63
2017-06-20T04:55:08.499Z,25.62
2017-06-20T04:55:48.960Z,25.58
2017-06-20T04:56:29.421Z,25.66
2017-06-20T04:57:09.920Z,25.56
2017-06-20T04:57:50.378Z,25.58
2017-06-20T04:58:30.839Z,25.62
2017-06-20T04:59:11.298Z,25.62
2017-06-20T04:59:51.752Z,25.62
2017-06-20T05:00:32.203Z,25.68
2017-06-20T05:01:12.665Z,25.66
2017-06-20T05:01:53.124Z,25.66
2017-06-20T05:02:33.584Z,25.63
2017-06-20T05:03:14.038Z,25.61
2017-06-20T05:03:54.628Z,25.62
2017-06-20T05:04:35.091Z,25.61
2017-06-20T05:05:15.557Z,25.59
2017-06-20T05:05:56.014Z,25.62
2017-06-20T05:06:36.481Z,25.63
2017-06-20T05:07:16.936Z,25.7
2017-06-20T05:07:57.397Z,25.68
2017-06-20T05:08:37.853Z,25.71
2017-06-20T05:09:18.318Z,25.73
2017-06-20T05:09:58.776Z,25.59
2017-06-20T05:10:39.234Z,25.76
2017-06-20T05:11:19.688Z,25.7
2017-06-20T05:12:00.147Z,25.74
2017-06-20T05:12:40.614Z,25.7
2017-06-20T05:13:21.071Z,25.76
2017-06-20T05:14:01.532Z,25.63
2017-06-20T05:14:41.989Z,25.62
2017-06-20T05:15:22.454Z,25.7
2017-06-20T05:16:02.912Z,25.71
2017-06-20T05:16:43.370Z,25.71
2017-06-20T05:17:23.828Z,25.73
2017-06-20T05:18:04.289Z,25.73
2017-06-20T05:18:44.750Z,25.74
2017-06-20T05:19:25.214Z,25.74
2017-06-20T05:20:05.680Z,25.78
2017-06-20T05:20:46.144Z,25.78
2017-06-20T05:21:26.599Z,25.74
2017-06-20T05:22:07.061Z,25.76
2017-06-20T05:22:47.522Z,25.71
2017-06-20T05:23:27.986Z,25.73
2017-06-20T05:24:08.445Z,25.7
2017-06-20T05:24:48.906Z,25.73
2017-06-20T05:25:29.364Z,25.74
2017-06-20T05:26:09.823Z,25.68
2017-06-20T05:26:50.279Z,25.68
2017-06-20T05:27:30.738Z,25.7
2017-06-20T05:28:11.197Z,25.73
2017-06-20T05:28:51.657Z,25.67
2017-06-20T05:29:32.125Z,25.73
2017-06-20T05:30:12.583Z,25.67
2017-06-20T05:30:53.041Z,25.67
2017-06-20T05:31:33.499Z,25.62
2017-06-20T05:32:13.956Z,25.67
2017-06-20T05:32:54.414Z,25.73
2017-06-20T05:33:34.872Z,25.68
2017-06-20T05:34:15.332Z,25.71
2017-06-20T05:34:55.790Z,25.7
2017-06-20T05:35:36.249Z,25.77
2017-06-20T05:36:16.712Z,25.67
2017-06-20T05:36:57.173Z,25.7
2017-06-20T05:37:37.637Z,25.71
2017-06-20T05:38:18.099Z,25.8
2017-06-20T05:38:58.557Z,25.74
2017-06-20T05:39:39.019Z,25.74
2017-06-20T05:40:19.480Z,25.81
2017-06-20T05:40:59.936Z,25.74
2017-06-20T05:41:40.399Z,25.81
2017-06-20T05:42:20.860Z,25.86
2017-06-20T05:43:01.315Z,25.88
2017-06-20T05:43:41.777Z,25.81
2017-06-20T05:44:22.233Z,25.85
2017-06-20T05:45:02.693Z,25.85
2017-06-20T05:45:43.174Z,25.8
2017-06-20T05:46:23.633Z,25.93
2017-06-20T05:47:04.097Z,25.89
2017-06-20T05:47:44.546Z,25.81
2017-06-20T05:48:25.008Z,25.91
2017-06-20T05:49:05.468Z,25.98
2017-06-20T05:49:45.921Z,25.95
2017-06-20T05:50:26.372Z,25.98
2017-06-20T05:51:06.839Z,25.95
2017-06-20T05:51:47.300Z,25.99
2017-06-20T05:52:27.756Z,25.95
2017-06-20T05:53:08.218Z,25.99
2017-06-20T05:53:48.679Z,26.04
2017-06-20T05:54:29.138Z,26.01
2017-06-20T05:55:09.603Z,25.98
2017-06-20T05:55:50.084Z,25.98
2017-06-20T05:56:30.519Z,25.95
2017-06-20T05:57:10.980Z,25.98
2017-06-20T05:57:51.443Z,25.99
2017-06-20T05:58:31.903Z,26.1
2017-06-20T05:59:12.362Z,25.96
2017-06-20T05:59:52.818Z,26.08
2017-06-20T06:00:33.274Z,26.03
2017-06-20T06:01:13.733Z,25.96
2017-06-20T06:01:54.189Z,26.08
2017-06-20T06:02:34.649Z,26.1
2017-06-20T06:03:15.109Z,26.13
2017-06-20T06:03:55.568Z,26.07
2017-06-20T06:04:36.032Z,25.99
2017-06-20T06:05:16.489Z,25.98
2017-06-20T06:05:56.951Z,25.99
2017-06-20T06:06:37.405Z,26.04
2017-06-20T06:07:17.862Z,26.03
2017-06-20T06:07:58.322Z,26.01
2017-06-20T06:08:38.774Z,26.1
2017-06-20T06:09:19.274Z,26.03
2017-06-20T06:09:59.723Z,26.15
2017-06-20T06:10:40.183Z,26.04
2017-06-20T06:11:20.652Z,26.1
2017-06-20T06:12:01.111Z,26.11
2017-06-20T06:12:41.572Z,26.1
2017-06-20T06:13:22.031Z,26.08
2017-06-20T06:14:02.475Z,26.1
2017-06-20T06:14:42.939Z,26.16
2017-06-20T06:15:23.395Z,26.18
2017-06-20T06:16:03.853Z,26.15
2017-06-20T06:16:44.320Z,26.13
2017-06-20T06:17:24.783Z,26.16
2017-06-20T06:18:05.242Z,26.16
2017-06-20T06:18:45.702Z,26.15
2017-06-20T06:19:26.159Z,26.13
2017-06-20T06:20:06.621Z,26.1
2017-06-20T06:20:47.077Z,26.11
2017-06-20T06:21:27.537Z,26.15
2017-06-20T06:22:07.997Z,26.22
2017-06-20T06:22:48.459Z,26.26
2017-06-20T06:23:28.922Z,26.26
2017-06-20T06:24:09.381Z,26.29
2017-06-20T06:24:49.841Z,26.26
2017-06-20T06:25:30.297Z,26.37
2017-06-20T06:26:10.753Z,26.33
2017-06-20T06:26:51.210Z,26.31
2017-06-20T06:27:31.672Z,26.27
2017-06-20T06:28:12.128Z,26.3
2017-06-20T06:28:52.581Z,26.26
2017-06-20T06:29:33.045Z,26.27
2017-06-20T06:30:13.508Z,26.26
2017-06-20T06:30:53.968Z,26.31
2017-06-20T06:31:34.425Z,26.27
2017-06-20T06:32:14.884Z,26.34
2017-06-20T06:32:55.341Z,26.31
2017-06-20T06:33:35.802Z,26.39
2017-06-20T06:34:16.263Z,26.34
2017-06-20T06:34:56.722Z,26.34
2017-06-20T06:35:37.183Z,26.39
2017-06-20T06:36:17.645Z,26.34
2017-06-20T06:36:58.105Z,26.36
2017-06-20T06:37:38.569Z,26.34
2017-06-20T06:38:19.032Z,26.37
2017-06-20T06:38:59.483Z,26.39
2017-06-20T06:39:39.942Z,26.36
2017-06-20T06:40:20.401Z,26.39
2017-06-20T06:41:00.859Z,26.36
2017-06-20T06:41:41.317Z,26.42
2017-06-20T06:42:21.779Z,26.51
2017-06-20T06:43:02.240Z,26.45
2017-06-20T06:43:42.700Z,26.37
2017-06-20T06:44:23.163Z,26.39
2017-06-20T06:45:03.622Z,26.46
2017-06-20T06:45:44.078Z,26.48
2017-06-20T06:46:24.538Z,26.45
2017-06-20T06:47:04.999Z,26.45
2017-06-20T06:47:45.460Z,26.48
2017-06-20T06:48:25.920Z,26.48
2017-06-20T06:49:06.380Z,26.48
2017-06-20T06:49:46.871Z,26.51
2017-06-20T06:50:27.300Z,26.44
2017-06-20T06:51:07.761Z,26.49
2017-06-20T06:51:48.223Z,26.49
2017-06-20T06:52:28.680Z,26.52
2017-06-20T06:53:09.141Z,26.52
2017-06-20T06:53:49.598Z,26.51
2017-06-20T06:54:30.059Z,26.49
2017-06-20T06:55:10.519Z,26.6
2017-06-20T06:55:50.980Z,26.52
2017-06-20T06:56:31.439Z,26.59
2017-06-20T06:57:11.896Z,26.52
2017-06-20T06:57:52.357Z,26.53
2017-06-20T06:58:32.815Z,26.6
2017-06-20T06:59:13.276Z,26.61
2017-06-20T06:59:53.735Z,26.61
2017-06-20T07:00:34.193Z,26.64
2017-06-20T07:01:14.654Z,26.68
2017-06-20T07:01:55.115Z,26.64
2017-06-20T07:02:35.575Z,26.63
2017-06-20T07:03:16.031Z,26.64
2017-06-20T07:03:56.488Z,26.63
2017-06-20T07:04:36.947Z,26.7
2017-06-20T07:05:17.406Z,26.63
2017-06-20T07:05:57.866Z,26.68
2017-06-20T07:06:38.324Z,26.63
2017-06-20T07:07:18.782Z,26.66
2017-06-20T07:07:59.246Z,26.66
2017-06-20T07:08:39.703Z,26.78
2017-06-20T07:09:20.155Z,26.68
2017-06-20T07:10:00.618Z,26.74
2017-06-20T07:10:41.080Z,26.7
2017-06-20T07:11:21.543Z,26.74
2017-06-20T07:12:02.002Z,26.81
2017-06-20T07:12:42.462Z,26.79
2017-06-20T07:13:22.930Z,26.76
2017-06-20T07:14:03.387Z,26.78
2017-06-20T07:14:43.850Z,26.76
2017-06-20T07:15:24.313Z,26.68
2017-06-20T07:16:04.778Z,26.88
2017-06-20T07:16:45.228Z,26.78
2017-06-20T07:17:25.686Z,26.78
2017-06-20T07:18:06.152Z,26.79
2017-06-20T07:18:46.611Z,26.81
2017-06-20T07:19:27.074Z,26.83
2017-06-20T07:20:07.541Z,26.83
2017-06-20T07:20:47.993Z,26.82
2017-06-20T07:21:28.454Z,26.76
2017-06-20T07:22:08.915Z,26.83
2017-06-20T07:22:49.374Z,26.92
2017-06-20T07:23:29.840Z,26.88
2017-06-20T07:24:10.304Z,26.81
2017-06-20T07:24:50.766Z,26.93
2017-06-20T07:25:31.228Z,26.89
2017-06-20T07:26:11.684Z,26.97
2017-06-20T07:26:52.142Z,26.96
2017-06-20T07:27:32.605Z,26.91
2017-06-20T07:28:13.065Z,26.86
2017-06-20T07:28:53.525Z,26.91
2017-06-20T07:29:33.983Z,26.89
2017-06-20T07:30:14.457Z,26.96
2017-06-20T07:30:54.911Z,26.85
2017-06-20T07:31:35.369Z,26.85
2017-06-20T07:32:15.826Z,26.96
2017-06-20T07:32:56.287Z,26.97
2017-06-20T07:33:36.749Z,26.93
2017-06-20T07:34:17.209Z,27.01
2017-06-20T07:34:57.669Z,27.01
2017-06-20T07:35:38.130Z,26.97
2017-06-20T07:36:18.588Z,26.97
2017-06-20T07:36:59.093Z,26.98
2017-06-20T07:37:39.580Z,27.01
2017-06-20T07:38:20.042Z,27.01
2017-06-20T07:39:00.498Z,26.93
2017-06-20T07:39:40.959Z,27.07
2017-06-20T07:40:21.422Z,27.04
2017-06-20T07:41:01.879Z,27.03
2017-06-20T07:41:42.343Z,27.08
2017-06-20T07:42:22.802Z,27
2017-06-20T07:43:03.261Z,27.07
2017-06-20T07:43:43.723Z,27.07
2017-06-20T07:44:24.182Z,27.07
2017-06-20T07:45:04.644Z,27.08
2017-06-20T07:45:45.098Z,27.07
2017-06-20T07:46:25.567Z,27.07
2017-06-20T07:47:06.016Z,27.03
2017-06-20T07:47:46.474Z,27.13
2017-06-20T07:48:26.932Z,27.11
2017-06-20T07:49:07.394Z,27.11
2017-06-20T07:49:47.854Z,27.13
2017-06-20T07:50:28.318Z,27.19
2017-06-20T07:51:08.783Z,27.13
2017-06-20T07:51:49.249Z,27.2
2017-06-20T07:52:29.689Z,27.26
2017-06-20T07:53:10.149Z,27.19
2017-06-20T07:53:50.604Z,27.23
2017-06-20T07:54:31.061Z,27.23
2017-06-20T07:55:11.520Z,27.22
2017-06-20T07:55:51.978Z,27.18
2017-06-20T07:56:32.436Z,27.25
2017-06-20T07:57:12.898Z,27.22
2017-06-20T07:57:53.356Z,27.23
2017-06-20T07:58:33.819Z,27.15
2017-06-20T07:59:14.278Z,27.18
2017-06-20T07:59:54.781Z,27.11
2017-06-20T08:00:35.241Z,27.23
2017-06-20T08:01:15.700Z,27.22
2017-06-20T08:01:56.163Z,27.18
2017-06-20T08:02:36.624Z,27.22
2017-06-20T08:03:17.082Z,27.23
2017-06-20T08:03:57.544Z,27.22
2017-06-20T08:04:38.010Z,27.2
2017-06-20T08:05:18.476Z,27.22
2017-06-20T08:05:58.934Z,27.33
2017-06-20T08:06:39.374Z,27.3
2017-06-20T08:07:19.837Z,27.25
2017-06-20T08:08:00.356Z,27.37
2017-06-20T08:08:40.777Z,27.25
2017-06-20T08:09:21.240Z,27.38
2017-06-20T08:10:01.700Z,27.37
2017-06-20T08:10:42.162Z,27.3
2017-06-20T08:11:22.634Z,27.33
2017-06-20T08:12:03.196Z,27.37
2017-06-20T08:12:43.655Z,27.38
2017-06-20T08:13:24.128Z,27.38
2017-06-20T08:14:04.567Z,27.34
2017-06-20T08:14:45.029Z,27.41
2017-06-20T08:15:25.489Z,27.38
2017-06-20T08:16:05.978Z,27.35
2017-06-20T08:16:46.440Z,27.41
2017-06-20T08:17:26.901Z,27.41
2017-06-20T08:18:07.359Z,27.44
2017-06-20T08:18:47.931Z,27.48
2017-06-20T08:19:28.393Z,27.45
2017-06-20T08:20:08.869Z,27.48
2017-06-20T08:20:49.297Z,27.55
2017-06-20T08:21:29.755Z,27.52
2017-06-20T08:22:10.231Z,27.55
2017-06-20T08:22:50.690Z,27.57
2017-06-20T08:23:31.148Z,27.48
2017-06-20T08:24:11.601Z,27.57
2017-06-20T08:24:52.058Z,27.5
2017-06-20T08:25:32.518Z,27.57
2017-06-20T08:26:12.977Z,27.6
2017-06-20T08:26:53.435Z,27.53
2017-06-20T08:27:33.893Z,27.68
2017-06-20T08:28:14.356Z,27.6
2017-06-20T08:28:54.801Z,27.6
2017-06-20T08:29:35.259Z,27.67
2017-06-20T08:30:15.714Z,27.67
2017-06-20T08:30:56.173Z,27.68
2017-06-20T08:31:36.634Z,27.71
2017-06-20T08:32:17.102Z,27.64
2017-06-20T08:32:57.578Z,27.67
2017-06-20T08:33:38.016Z,27.68
2017-06-20T08:34:18.474Z,27.71
2017-06-20T08:34:58.932Z,27.79
2017-06-20T08:35:39.394Z,27.82
2017-06-20T08:36:19.853Z,27.71
2017-06-20T08:37:00.312Z,27.76
2017-06-20T08:37:40.769Z,27.76
2017-06-20T08:38:21.231Z,27.78
2017-06-20T08:39:01.681Z,27.76
2017-06-20T08:39:42.143Z,27.82
2017-06-20T08:40:22.601Z,27.79
2017-06-20T08:41:03.062Z,27.9
2017-06-20T08:41:43.524Z,27.82
2017-06-20T08:42:23.982Z,27.86
2017-06-20T08:43:04.444Z,27.79